Time;durP1;ratioP1;P1;durP2;ratioP2;P2;SDS_P1;SDS_P2;PMS_P1;PMS_P2;Temp;Humidity;BMP_temperature;BMP_pressure;BME280_temperature;BME280_humidity;BME280_pressure;Samples;Min_cycle;Max_cycle;Signal;HPM_P1;HPM_P2
2022/12/02 00:01:11;;;;;;;41.22;14.48;;;;;;;;;;5028393;28;20028;-85
2022/12/02 00:03:37;;;;;;;42.25;14.63;;;;;;;;;;5025596;28;20041;-84
2022/12/02 00:06:03;;;;;;;49.97;16.10;;;;;;;;;;5028296;28;20029;-85
2022/12/02 00:08:30;;;;;;;36.72;14.38;;;;;;;;;;5028034;28;20029;-85
2022/12/02 00:10:59;;;;;;;37.78;14.05;;;;;;;;;;5027976;28;20411;-85
2022/12/02 00:13:30;;;;;;;41.03;15.50;;;;;;;;;;5027265;28;20029;-85
2022/12/02 00:16:03;;;;;;;44.78;15.10;;;;;;;;;;5015705;28;20398;-85
2022/12/02 00:18:30;;;;;;;48.05;14.77;;;;;;;;;;5029225;28;20052;-85
2022/12/02 00:20:55;;;;;;;38.95;14.38;;;;;;;;;;5020328;28;20076;-85
2022/12/02 00:23:21;;;;;;;44.65;15.75;;;;;;;;;;5020670;28;20434;-85
2022/12/02 00:25:50;;;;;;;43.28;16.15;;;;;;;;;;5027700;28;20050;-85
2022/12/02 00:28:16;;;;;;;38.35;15.02;;;;;;;;;;5029219;28;20060;-85
2022/12/02 00:30:42;;;;;;;38.92;14.23;;;;;;;;;;5028333;28;20123;-85
2022/12/02 00:33:08;;;;;;;45.95;15.55;;;;;;;;;;5026655;28;20411;-85
2022/12/02 00:35:33;;;;;;;39.30;15.15;;;;;;;;;;5026915;28;20044;-84
2022/12/02 00:37:59;;;;;;;44.83;13.70;;;;;;;;;;5027055;28;20029;-85
2022/12/02 00:40:24;;;;;;;35.10;13.07;;;;;;;;;;5021725;28;20021;-84
2022/12/02 00:42:50;;;;;;;46.75;15.27;;;;;;;;;;5026132;28;20045;-85
2022/12/02 00:47:59;;;;;;;40.10;15.38;;;;;;;;;;5016894;28;20110;-85
2022/12/02 00:50:25;;;;;;;40.00;13.93;;;;;;;;;;5040502;28;20056;-85
2022/12/02 00:52:51;;;;;;;40.15;14.32;;;;;;;;;;5028649;28;20471;-84
2022/12/02 00:55:16;;;;;;;45.22;16.05;;;;;;;;;;5028881;28;20104;-85
2022/12/02 00:57:42;;;;;;;46.08;15.43;;;;;;;;;;5042425;28;20483;-85
2022/12/02 01:00:08;;;;;;;40.65;14.25;;;;;;;;;;5028114;28;20037;-85
2022/12/02 01:02:34;;;;;;;37.97;14.75;;;;;;;;;;5024951;28;20115;-85
2022/12/02 01:04:59;;;;;;;34.45;14.70;;;;;;;;;;5028569;28;20065;-85
2022/12/02 01:07:24;;;;;;;43.20;15.02;;;;;;;;;;5026642;28;20055;-85
2022/12/02 01:09:50;;;;;;;43.63;14.82;;;;;;;;;;5025796;28;20028;-85
2022/12/02 01:12:15;;;;;;;42.65;14.98;;;;;;;;;;5027643;28;20039;-84
2022/12/02 01:14:41;;;;;;;41.88;13.55;;;;;;;;;;5026835;28;20391;-85
2022/12/02 01:17:06;;;;;;;40.40;14.18;;;;;;;;;;5040038;28;20061;-84
2022/12/02 01:19:31;;;;;;;42.80;14.63;;;;;;;;;;5027997;28;20498;-84
2022/12/02 01:21:57;;;;;;;41.30;13.82;;;;;;;;;;5022605;28;20029;-84
2022/12/02 01:24:22;;;;;;;43.25;15.02;;;;;;;;;;5018902;28;20081;-85
2022/12/02 01:26:47;;;;;;;45.28;14.25;;;;;;;;;;5015532;28;20034;-85
2022/12/02 01:29:13;;;;;;;35.53;15.30;;;;;;;;;;5027713;28;20037;-85
2022/12/02 01:31:38;;;;;;;38.50;13.23;;;;;;;;;;5023359;28;20049;-84
2022/12/02 01:34:03;;;;;;;42.70;15.27;;;;;;;;;;5027502;28;20021;-85
2022/12/02 01:36:29;;;;;;;45.20;15.38;;;;;;;;;;5027376;28;20116;-85
2022/12/02 01:38:54;;;;;;;43.53;14.88;;;;;;;;;;5026952;28;20044;-85
2022/12/02 01:41:19;;;;;;;47.97;15.07;;;;;;;;;;5022678;28;20030;-84
2022/12/02 01:43:45;;;;;;;43.05;14.88;;;;;;;;;;5012973;28;20084;-84
2022/12/02 01:46:11;;;;;;;45.65;14.85;;;;;;;;;;5026683;28;20041;-84
2022/12/02 01:48:36;;;;;;;40.47;14.95;;;;;;;;;;5027566;28;20695;-84
2022/12/02 01:51:04;;;;;;;48.55;16.15;;;;;;;;;;5042453;28;20025;-84
2022/12/02 01:53:30;;;;;;;41.53;15.60;;;;;;;;;;5021039;28;20775;-84
2022/12/02 01:55:55;;;;;;;42.80;15.60;;;;;;;;;;5027506;28;20029;-85
2022/12/02 01:58:25;;;;;;;40.60;12.57;;;;;;;;;;5026850;28;20561;-84
2022/12/02 02:00:53;;;;;;;53.58;16.52;;;;;;;;;;5023404;28;20819;-84
2022/12/02 02:03:18;;;;;;;39.28;13.63;;;;;;;;;;5012402;28;20029;-84
2022/12/02 02:05:45;;;;;;;50.20;15.40;;;;;;;;;;5020792;28;20033;-84
2022/12/02 02:08:11;;;;;;;39.78;14.52;;;;;;;;;;5025555;28;20030;-84
2022/12/02 02:10:39;;;;;;;42.75;14.68;;;;;;;;;;5025768;28;20021;-84
2022/12/02 02:13:06;;;;;;;45.40;14.43;;;;;;;;;;5025094;28;20686;-84
2022/12/02 02:15:31;;;;;;;38.80;14.27;;;;;;;;;;5025937;28;20034;-84
2022/12/02 02:17:57;;;;;;;42.88;15.43;;;;;;;;;;5020672;28;20037;-85
2022/12/02 02:20:24;;;;;;;46.75;14.60;;;;;;;;;;5018593;28;20033;-84
2022/12/02 02:23:04;;;;;;;41.25;14.85;;;;;;;;;;5025481;28;20043;-84
2022/12/02 02:25:42;;;;;;;50.40;16.05;;;;;;;;;;5024734;28;20633;-85
2022/12/02 02:28:08;;;;;;;42.92;14.20;;;;;;;;;;5012818;28;20027;-85
2022/12/02 02:30:35;;;;;;;38.65;13.23;;;;;;;;;;5042457;28;20371;-84
2022/12/02 02:33:03;;;;;;;43.17;13.68;;;;;;;;;;5025426;28;20037;-85
2022/12/02 02:35:31;;;;;;;48.00;14.90;;;;;;;;;;5021939;28;20072;-84
2022/12/02 02:37:57;;;;;;;38.42;14.02;;;;;;;;;;5021227;28;20036;-84
2022/12/02 02:40:24;;;;;;;37.45;13.98;;;;;;;;;;5022569;28;20025;-84
2022/12/02 02:42:52;;;;;;;38.78;14.52;;;;;;;;;;5021480;28;20025;-84
2022/12/02 02:45:23;;;;;;;42.78;14.00;;;;;;;;;;5007055;28;20076;-85
2022/12/02 02:47:49;;;;;;;38.45;14.60;;;;;;;;;;5020220;28;20080;-84
2022/12/02 02:50:15;;;;;;;45.35;14.85;;;;;;;;;;5035587;28;20204;-84
2022/12/02 02:52:40;;;;;;;37.33;12.77;;;;;;;;;;5022469;28;20549;-84
2022/12/02 02:55:07;;;;;;;45.15;14.18;;;;;;;;;;5016540;28;20021;-84
2022/12/02 02:57:35;;;;;;;41.35;15.38;;;;;;;;;;5024384;28;20799;-84
2022/12/02 03:00:01;;;;;;;45.50;14.57;;;;;;;;;;5026417;28;20041;-84
2022/12/02 03:02:27;;;;;;;45.63;15.57;;;;;;;;;;5026427;28;20033;-84
2022/12/02 03:04:53;;;;;;;38.72;14.55;;;;;;;;;;5026174;28;20046;-84
2022/12/02 03:07:19;;;;;;;47.75;15.88;;;;;;;;;;5027415;28;20044;-83
2022/12/02 03:09:45;;;;;;;47.47;16.02;;;;;;;;;;5025682;28;20562;-85
2022/12/02 03:12:10;;;;;;;49.13;16.48;;;;;;;;;;5024337;28;20051;-85
2022/12/02 03:14:36;;;;;;;48.20;17.42;;;;;;;;;;5024640;28;20620;-84
2022/12/02 03:17:02;;;;;;;54.53;17.58;;;;;;;;;;5026152;28;20030;-85
2022/12/02 03:19:30;;;;;;;50.33;16.92;;;;;;;;;;5027535;28;20078;-85
2022/12/02 03:21:57;;;;;;;58.85;15.70;;;;;;;;;;5028170;28;20021;-84
2022/12/02 03:24:22;;;;;;;45.78;15.18;;;;;;;;;;5026462;28;20033;-84
2022/12/02 03:26:48;;;;;;;53.13;17.27;;;;;;;;;;5026045;28;20025;-82
2022/12/02 03:29:14;;;;;;;53.65;16.85;;;;;;;;;;5028836;28;20117;-84
2022/12/02 03:31:39;;;;;;;53.80;17.33;;;;;;;;;;5031180;28;20039;-83
2022/12/02 03:34:05;;;;;;;56.88;17.73;;;;;;;;;;5023485;28;20589;-85
2022/12/02 03:36:30;;;;;;;54.55;16.50;;;;;;;;;;5030875;28;20686;-84
2022/12/02 03:38:56;;;;;;;53.85;17.65;;;;;;;;;;5030651;28;20124;-85
2022/12/02 03:41:24;;;;;;;51.97;18.13;;;;;;;;;;5029074;28;20474;-84
2022/12/02 03:43:49;;;;;;;59.38;17.58;;;;;;;;;;5022643;28;20119;-85
2022/12/02 03:46:15;;;;;;;56.00;17.98;;;;;;;;;;5029164;28;20060;-83
2022/12/02 03:48:40;;;;;;;53.97;17.83;;;;;;;;;;5022275;28;20041;-80
2022/12/02 03:51:07;;;;;;;59.38;17.33;;;;;;;;;;5039459;28;20058;-84
2022/12/02 03:53:33;;;;;;;57.25;17.83;;;;;;;;;;5022956;28;20410;-84
2022/12/02 03:56:02;;;;;;;73.97;22.17;;;;;;;;;;5027458;28;20495;-84
2022/12/02 03:58:48;;;;;;;62.53;18.88;;;;;;;;;;5030201;28;20032;-85
2022/12/02 04:01:15;;;;;;;47.20;16.60;;;;;;;;;;5017471;28;20052;-84
2022/12/02 04:03:40;;;;;;;65.40;17.63;;;;;;;;;;5028298;28;20030;-84
2022/12/02 04:06:05;;;;;;;57.58;18.00;;;;;;;;;;5027134;28;20029;-85
2022/12/02 04:08:31;;;;;;;52.85;17.02;;;;;;;;;;5024798;28;20038;-85
2022/12/02 04:10:56;;;;;;;68.32;18.98;;;;;;;;;;5028211;28;20036;-85
2022/12/02 04:13:22;;;;;;;58.33;16.40;;;;;;;;;;5029072;28;20017;-85
2022/12/02 04:15:47;;;;;;;61.15;18.90;;;;;;;;;;5026697;28;20028;-84
2022/12/02 04:18:13;;;;;;;49.15;16.30;;;;;;;;;;5015628;28;20038;-85
2022/12/02 04:20:38;;;;;;;49.28;16.95;;;;;;;;;;5029333;28;20040;-84
2022/12/02 04:23:03;;;;;;;59.95;17.70;;;;;;;;;;5028595;28;20387;-85
2022/12/02 04:25:29;;;;;;;61.53;17.45;;;;;;;;;;5023859;28;20768;-80
2022/12/02 04:27:54;;;;;;;59.08;17.88;;;;;;;;;;5029006;28;20108;-84
2022/12/02 04:30:19;;;;;;;48.55;16.92;;;;;;;;;;5026646;28;20122;-85
2022/12/02 04:32:45;;;;;;;55.13;17.42;;;;;;;;;;5026933;28;20044;-84
2022/12/02 04:35:10;;;;;;;50.70;15.73;;;;;;;;;;5022135;28;20029;-85
2022/12/02 04:37:35;;;;;;;56.15;15.23;;;;;;;;;;5027040;28;20048;-84
2022/12/02 04:40:01;;;;;;;54.63;17.45;;;;;;;;;;5028330;28;20025;-84
2022/12/02 04:42:26;;;;;;;50.85;16.65;;;;;;;;;;5043244;28;20032;-84
2022/12/02 04:44:51;;;;;;;53.42;16.00;;;;;;;;;;5015392;28;20033;-85
2022/12/02 04:47:17;;;;;;;46.95;15.55;;;;;;;;;;5027682;28;20942;-85
2022/12/02 04:49:42;;;;;;;55.13;17.05;;;;;;;;;;5024411;28;20041;-85
2022/12/02 04:52:07;;;;;;;49.40;16.38;;;;;;;;;;5020651;28;20160;-85
2022/12/02 04:54:33;;;;;;;48.47;16.45;;;;;;;;;;5027601;28;20109;-85
2022/12/02 04:56:58;;;;;;;48.78;16.33;;;;;;;;;;5025815;28;20047;-85
2022/12/02 04:59:23;;;;;;;50.97;15.15;;;;;;;;;;5027774;28;20442;-85
2022/12/02 05:01:49;;;;;;;48.97;17.10;;;;;;;;;;5028171;28;20143;-84
2022/12/02 05:04:14;;;;;;;51.38;15.43;;;;;;;;;;5022683;28;20025;-85
2022/12/02 05:06:39;;;;;;;52.50;17.42;;;;;;;;;;5027336;28;20052;-84
2022/12/02 05:09:05;;;;;;;54.53;17.25;;;;;;;;;;5027542;28;20120;-85
2022/12/02 05:11:30;;;;;;;47.35;15.73;;;;;;;;;;5026641;28;20037;-85
2022/12/02 05:13:55;;;;;;;48.28;16.00;;;;;;;;;;5026362;28;20033;-85
2022/12/02 05:16:21;;;;;;;47.17;16.73;;;;;;;;;;5027786;28;20029;-85
2022/12/02 05:18:46;;;;;;;51.97;15.98;;;;;;;;;;5027145;28;20384;-84
2022/12/02 05:21:11;;;;;;;43.33;14.85;;;;;;;;;;5028165;28;20041;-85
2022/12/02 05:23:37;;;;;;;50.45;17.63;;;;;;;;;;5028000;28;20533;-84
2022/12/02 05:26:02;;;;;;;61.05;18.70;;;;;;;;;;5026504;28;20037;-84
2022/12/02 05:28:27;;;;;;;53.90;16.02;;;;;;;;;;5025987;28;20025;-85
2022/12/02 05:30:53;;;;;;;53.40;16.98;;;;;;;;;;5022043;28;20025;-85
2022/12/02 05:33:18;;;;;;;49.88;16.45;;;;;;;;;;5026346;28;20034;-85
2022/12/02 05:35:44;;;;;;;56.60;17.35;;;;;;;;;;5026633;28;20510;-85
2022/12/02 05:38:09;;;;;;;57.28;17.45;;;;;;;;;;5025063;28;20033;-85
2022/12/02 05:40:34;;;;;;;51.28;15.57;;;;;;;;;;5023308;28;20026;-85
2022/12/02 05:43:14;;;;;;;60.97;17.90;;;;;;;;;;5019179;28;20388;-85
2022/12/02 05:45:40;;;;;;;51.22;15.63;;;;;;;;;;4998164;28;20044;-85
2022/12/02 05:48:10;;;;;;;56.38;17.95;;;;;;;;;;5039946;28;20598;-85
2022/12/02 05:50:36;;;;;;;51.50;15.25;;;;;;;;;;5024348;28;20029;-85
2022/12/02 05:53:01;;;;;;;50.70;17.08;;;;;;;;;;5020282;28;20049;-85
2022/12/02 05:55:27;;;;;;;54.15;16.35;;;;;;;;;;5027526;28;20668;-85
2022/12/02 05:57:57;;;;;;;47.17;15.15;;;;;;;;;;5027299;28;20563;-84
2022/12/02 06:00:23;;;;;;;41.65;13.80;;;;;;;;;;5027636;28;20063;-84
2022/12/02 06:02:48;;;;;;;46.40;16.38;;;;;;;;;;5025300;28;20430;-85
2022/12/02 06:05:24;;;;;;;52.58;16.67;;;;;;;;;;5026433;28;20037;-85
2022/12/02 06:07:54;;;;;;;45.63;15.20;;;;;;;;;;5024285;28;20034;-84
2022/12/02 06:10:29;;;;;;;55.92;17.35;;;;;;;;;;5018572;28;20025;-84
2022/12/02 06:13:03;;;;;;;48.92;16.50;;;;;;;;;;5027374;28;20026;-85
2022/12/02 06:15:35;;;;;;;48.80;15.30;;;;;;;;;;5027272;28;20026;-84
2022/12/02 06:18:01;;;;;;;43.55;14.32;;;;;;;;;;5025703;28;20040;-85
2022/12/02 06:20:32;;;;;;;43.25;15.23;;;;;;;;;;5025559;28;20063;-85
2022/12/02 06:22:59;;;;;;;46.47;14.80;;;;;;;;;;5020446;28;20120;-84
2022/12/02 06:25:28;;;;;;;47.75;14.82;;;;;;;;;;5015244;28;20551;-85
2022/12/02 06:27:55;;;;;;;53.42;16.08;;;;;;;;;;5021639;28;20486;-85
2022/12/02 06:30:21;;;;;;;46.53;15.68;;;;;;;;;;5027938;28;20060;-85
2022/12/02 06:32:54;;;;;;;46.38;16.02;;;;;;;;;;5026770;28;20064;-84
2022/12/02 06:35:25;;;;;;;48.35;16.92;;;;;;;;;;5027209;28;20034;-84
2022/12/02 06:37:59;;;;;;;44.92;14.90;;;;;;;;;;5018762;28;20037;-84
2022/12/02 06:40:29;;;;;;;61.65;19.05;;;;;;;;;;5022358;28;20722;-85
2022/12/02 06:43:00;;;;;;;48.38;16.40;;;;;;;;;;5021308;28;20048;-85
2022/12/02 06:45:31;;;;;;;56.83;16.90;;;;;;;;;;5030844;28;20522;-85
2022/12/02 06:48:01;;;;;;;54.85;16.20;;;;;;;;;;5021767;28;20502;-85
2022/12/02 06:50:36;;;;;;;57.50;18.48;;;;;;;;;;5021687;28;20061;-85
2022/12/02 06:53:26;;;;;;;63.55;17.85;;;;;;;;;;5025773;28;20022;-84
2022/12/02 06:55:58;;;;;;;56.28;18.80;;;;;;;;;;5023015;28;20096;-85
2022/12/02 06:58:36;;;;;;;55.80;17.00;;;;;;;;;;5025140;28;20462;-80
2022/12/02 07:01:30;;;;;;;58.72;17.83;;;;;;;;;;5025474;28;20085;-84
2022/12/02 07:04:07;;;;;;;60.78;17.88;;;;;;;;;;5024825;28;20041;-80
2022/12/02 07:06:36;;;;;;;50.42;16.52;;;;;;;;;;5010352;28;20572;-85
2022/12/02 07:09:15;;;;;;;59.65;18.63;;;;;;;;;;5024828;28;20033;-85
2022/12/02 07:11:54;;;;;;;61.05;18.17;;;;;;;;;;5014782;28;20104;-84
2022/12/02 07:14:32;;;;;;;57.20;16.65;;;;;;;;;;5021400;28;20036;-84
2022/12/02 07:17:20;;;;;;;66.18;19.40;;;;;;;;;;5028806;28;20057;-84
2022/12/02 07:19:49;;;;;;;64.03;20.48;;;;;;;;;;5017835;28;20046;-84
2022/12/02 07:22:19;;;;;;;49.70;16.42;;;;;;;;;;5024631;28;20018;-84
2022/12/02 07:25:08;;;;;;;57.85;16.92;;;;;;;;;;5020237;28;20057;-85
2022/12/02 07:27:38;;;;;;;57.83;17.67;;;;;;;;;;5020976;28;20033;-85
2022/12/02 07:30:17;;;;;;;58.00;15.98;;;;;;;;;;5018983;28;20065;-84
2022/12/02 07:32:42;;;;;;;71.63;19.45;;;;;;;;;;5016162;28;20038;-85
2022/12/02 07:35:08;;;;;;;58.47;17.08;;;;;;;;;;5029414;28;20029;-85
2022/12/02 07:37:33;;;;;;;52.38;15.55;;;;;;;;;;5017016;28;20518;-85
2022/12/02 07:39:58;;;;;;;60.05;18.05;;;;;;;;;;5018054;28;20053;-84
2022/12/02 07:42:24;;;;;;;49.75;16.45;;;;;;;;;;5021062;28;20064;-84
2022/12/02 07:44:49;;;;;;;54.83;18.13;;;;;;;;;;5018612;28;20040;-86
2022/12/02 07:47:14;;;;;;;62.83;18.15;;;;;;;;;;5025992;28;20030;-84
2022/12/02 07:49:39;;;;;;;65.30;18.38;;;;;;;;;;5023112;28;20037;-84
2022/12/02 07:52:05;;;;;;;58.53;17.20;;;;;;;;;;5022219;28;20093;-83
2022/12/02 07:54:32;;;;;;;54.78;17.88;;;;;;;;;;5022840;28;20026;-83
2022/12/02 07:56:57;;;;;;;58.22;16.75;;;;;;;;;;5020402;28;20044;-84
2022/12/02 07:59:22;;;;;;;55.47;15.35;;;;;;;;;;5024693;28;20041;-84
2022/12/02 08:01:48;;;;;;;65.72;17.02;;;;;;;;;;5022560;28;20134;-84
2022/12/02 08:04:13;;;;;;;68.00;19.77;;;;;;;;;;5021385;28;20438;-81
2022/12/02 08:06:39;;;;;;;59.22;17.73;;;;;;;;;;5036159;28;20029;-85
2022/12/02 08:09:04;;;;;;;66.47;18.70;;;;;;;;;;5006339;28;20033;-84
2022/12/02 08:11:29;;;;;;;66.05;18.30;;;;;;;;;;5016880;28;20041;-85
2022/12/02 08:13:54;;;;;;;48.47;15.52;;;;;;;;;;5020697;28;20129;-84
2022/12/02 08:16:20;;;;;;;54.70;16.10;;;;;;;;;;5020253;28;20021;-85
2022/12/02 08:18:45;;;;;;;49.03;14.82;;;;;;;;;;5023833;28;20055;-85
2022/12/02 08:21:10;;;;;;;47.63;14.52;;;;;;;;;;5026448;28;20041;-84
2022/12/02 08:23:36;;;;;;;42.80;13.00;;;;;;;;;;5022798;28;20450;-85
2022/12/02 08:26:01;;;;;;;55.85;15.88;;;;;;;;;;5025151;28;20116;-85
2022/12/02 08:28:26;;;;;;;58.83;17.90;;;;;;;;;;5025427;28;20105;-85
2022/12/02 08:30:53;;;;;;;62.00;16.92;;;;;;;;;;5025707;28;20687;-84
2022/12/02 08:33:19;;;;;;;56.63;15.80;;;;;;;;;;5025851;28;20079;-85
2022/12/02 08:35:44;;;;;;;50.95;17.38;;;;;;;;;;5021247;28;20041;-85
2022/12/02 08:38:09;;;;;;;54.22;16.08;;;;;;;;;;5025047;28;20034;-84
2022/12/02 08:40:35;;;;;;;64.78;17.48;;;;;;;;;;5024942;28;20075;-85
2022/12/02 08:43:01;;;;;;;50.65;15.10;;;;;;;;;;5016434;28;20021;-84
2022/12/02 08:45:28;;;;;;;55.63;16.70;;;;;;;;;;5013120;28;20048;-85
2022/12/02 08:47:53;;;;;;;43.28;14.80;;;;;;;;;;5017492;28;20427;-85
2022/12/02 08:50:18;;;;;;;54.63;15.82;;;;;;;;;;5026834;28;20643;-85
2022/12/02 08:52:44;;;;;;;64.03;15.77;;;;;;;;;;5022075;28;20099;-84
2022/12/02 08:55:09;;;;;;;59.90;15.75;;;;;;;;;;5027575;28;20017;-84
2022/12/02 08:57:34;;;;;;;48.72;16.00;;;;;;;;;;5026391;28;20037;-84
2022/12/02 09:00:00;;;;;;;50.72;15.48;;;;;;;;;;5026717;28;20400;-85
2022/12/02 09:02:25;;;;;;;46.30;15.38;;;;;;;;;;5023426;28;20038;-84
2022/12/02 09:04:50;;;;;;;55.30;16.13;;;;;;;;;;5025616;28;20034;-84
2022/12/02 09:07:16;;;;;;;58.08;16.67;;;;;;;;;;5022828;28;20029;-84
2022/12/02 09:09:42;;;;;;;51.22;14.82;;;;;;;;;;5025651;28;20036;-85
2022/12/02 09:12:07;;;;;;;47.33;15.00;;;;;;;;;;5025260;28;20034;-84
2022/12/02 09:14:33;;;;;;;53.38;15.32;;;;;;;;;;5025644;28;20049;-85
2022/12/02 09:16:58;;;;;;;47.25;13.05;;;;;;;;;;5025708;28;20033;-85
2022/12/02 09:19:23;;;;;;;58.33;17.58;;;;;;;;;;5021017;28;20029;-83
2022/12/02 09:21:49;;;;;;;44.53;13.05;;;;;;;;;;5023965;28;20422;-84
2022/12/02 09:24:14;;;;;;;52.70;15.63;;;;;;;;;;5026245;28;20030;-84
2022/12/02 09:26:39;;;;;;;55.05;15.50;;;;;;;;;;5019820;28;20594;-84
2022/12/02 09:29:05;;;;;;;52.97;16.40;;;;;;;;;;5015259;28;20055;-85
2022/12/02 09:31:30;;;;;;;52.10;16.05;;;;;;;;;;5024853;28;20062;-86
2022/12/02 09:33:55;;;;;;;42.08;12.98;;;;;;;;;;5024277;28;20029;-85
2022/12/02 09:36:20;;;;;;;50.05;14.57;;;;;;;;;;5019514;28;20096;-85
2022/12/02 09:38:46;;;;;;;56.38;15.85;;;;;;;;;;5027765;28;20040;-85
2022/12/02 09:41:11;;;;;;;49.70;12.73;;;;;;;;;;5014270;28;20038;-77
2022/12/02 09:43:37;;;;;;;43.53;14.50;;;;;;;;;;5028803;28;20021;-77
2022/12/02 09:46:04;;;;;;;49.75;13.68;;;;;;;;;;5037738;28;21686;-77
2022/12/02 09:48:29;;;;;;;53.08;13.85;;;;;;;;;;5020970;28;20091;-76
2022/12/02 09:50:56;;;;;;;50.85;15.23;;;;;;;;;;5022447;28;20030;-77
2022/12/02 09:53:27;;;;;;;48.70;15.02;;;;;;;;;;5024343;28;20057;-79
2022/12/02 09:55:53;;;;;;;42.33;12.73;;;;;;;;;;5024873;28;20797;-76
2022/12/02 09:58:20;;;;;;;55.13;15.30;;;;;;;;;;5025751;28;20093;-76
2022/12/02 10:00:49;;;;;;;47.45;15.18;;;;;;;;;;5026541;28;20034;-76
2022/12/02 10:03:16;;;;;;;48.45;14.60;;;;;;;;;;5023376;28;20069;-76
2022/12/02 10:05:42;;;;;;;51.22;14.02;;;;;;;;;;5019698;28;20708;-76
2022/12/02 10:08:14;;;;;;;45.30;14.93;;;;;;;;;;5025623;28;20029;-76
2022/12/02 10:10:43;;;;;;;22.77;8.25;;;;;;;;;;5025109;28;20049;-76
2022/12/02 10:13:14;;;;;;;43.20;14.18;;;;;;;;;;5024084;28;20068;-76
2022/12/02 10:15:40;;;;;;;62.95;17.02;;;;;;;;;;5016026;28;20112;-76
2022/12/02 10:18:24;;;;;;;72.00;19.77;;;;;;;;;;5019385;28;20124;-76
2022/12/02 10:20:50;;;;;;;47.08;14.95;;;;;;;;;;5023958;28;20041;-76
2022/12/02 10:23:18;;;;;;;58.22;17.80;;;;;;;;;;5017336;28;20038;-76
2022/12/02 10:25:49;;;;;;;55.30;16.50;;;;;;;;;;5019875;28;20099;-76
2022/12/02 10:28:25;;;;;;;54.45;15.65;;;;;;;;;;5020326;28;20030;-76
2022/12/02 10:30:55;;;;;;;48.78;13.95;;;;;;;;;;5020803;28;20045;-76
2022/12/02 10:33:26;;;;;;;38.28;13.13;;;;;;;;;;5018439;28;20048;-76
2022/12/02 10:35:53;;;;;;;36.50;11.25;;;;;;;;;;5023858;28;20068;-77
2022/12/02 10:38:33;;;;;;;45.60;12.35;;;;;;;;;;5024560;28;20040;-77
2022/12/02 10:41:14;;;;;;;34.17;11.43;;;;;;;;;;5025430;28;20061;-76
2022/12/02 10:43:51;;;;;;;12.05;6.10;;;;;;;;;;5021400;28;20522;-77
2022/12/02 10:46:18;;;;;;;34.33;11.65;;;;;;;;;;5034390;28;20037;-77
2022/12/02 10:48:43;;;;;;;32.10;11.07;;;;;;;;;;5022945;28;20133;-77
2022/12/02 10:51:17;;;;;;;36.97;11.18;;;;;;;;;;5024072;28;20121;-76
2022/12/02 10:53:44;;;;;;;28.80;8.88;;;;;;;;;;5020192;28;20034;-77
2022/12/02 10:56:19;;;;;;;33.45;12.05;;;;;;;;;;5021924;28;20029;-79
2022/12/02 10:58:44;;;;;;;33.70;10.35;;;;;;;;;;5020487;28;20037;-77
2022/12/02 11:01:11;;;;;;;30.77;10.02;;;;;;;;;;5017176;28;20030;-76
2022/12/02 11:03:38;;;;;;;39.53;10.50;;;;;;;;;;5024659;28;20025;-77
2022/12/02 11:06:06;;;;;;;31.50;10.27;;;;;;;;;;5024225;28;20087;-77
2022/12/02 11:08:31;;;;;;;31.05;9.40;;;;;;;;;;5021653;28;20041;-77
2022/12/02 11:11:16;;;;;;;27.25;8.20;;;;;;;;;;5022338;28;20033;-80
2022/12/02 11:13:54;;;;;;;36.78;11.20;;;;;;;;;;5018680;28;20029;-81
2022/12/02 11:16:26;;;;;;;31.52;10.68;;;;;;;;;;5016366;28;20026;-80
2022/12/02 11:18:57;;;;;;;30.23;10.70;;;;;;;;;;5020669;28;20021;-80
2022/12/02 11:21:28;;;;;;;36.97;10.95;;;;;;;;;;5011591;28;20037;-80
2022/12/02 11:24:22;;;;;;;31.60;11.25;;;;;;;;;;5021217;28;20538;-79
2022/12/02 11:27:02;;;;;;;35.10;11.98;;;;;;;;;;5018636;28;20045;-79
2022/12/02 11:29:37;;;;;;;32.92;12.02;;;;;;;;;;5023195;28;20045;-79
2022/12/02 11:32:16;;;;;;;37.17;11.13;;;;;;;;;;5020773;28;20045;-79
2022/12/02 11:34:50;;;;;;;30.45;10.55;;;;;;;;;;5023717;28;20037;-80
2022/12/02 11:37:35;;;;;;;30.58;11.00;;;;;;;;;;5022101;28;20029;-79
2022/12/02 11:40:09;;;;;;;32.42;11.10;;;;;;;;;;5031604;28;20037;-79
2022/12/02 11:42:36;;;;;;;26.42;8.95;;;;;;;;;;5019847;28;20038;-80
2022/12/02 11:45:11;;;;;;;34.33;10.75;;;;;;;;;;5022396;28;20046;-79
2022/12/02 11:47:37;;;;;;;31.20;10.68;;;;;;;;;;5020806;28;20038;-79
2022/12/02 11:50:22;;;;;;;34.47;10.30;;;;;;;;;;5026695;28;20458;-79
2022/12/02 11:52:55;;;;;;;32.45;9.68;;;;;;;;;;5020623;28;20057;-80
2022/12/02 11:55:29;;;;;;;28.65;9.25;;;;;;;;;;5007552;28;20659;-79
2022/12/02 11:57:57;;;;;;;35.70;10.15;;;;;;;;;;5024024;28;20025;-80
2022/12/02 12:00:33;;;;;;;26.45;9.38;;;;;;;;;;5026633;28;20065;-79
2022/12/02 12:03:18;;;;;;;36.53;10.02;;;;;;;;;;5027799;28;20091;-80
2022/12/02 12:06:23;;;;;;;23.13;8.65;;;;;;;;;;5023123;28;20049;-79
2022/12/02 12:08:52;;;;;;;25.17;7.72;;;;;;;;;;5025401;28;20029;-80
2022/12/02 12:11:29;;;;;;;27.27;8.40;;;;;;;;;;5022607;28;20029;-80
2022/12/02 12:14:10;;;;;;;25.80;8.55;;;;;;;;;;5022934;28;20455;-81
2022/12/02 12:16:47;;;;;;;26.08;8.20;;;;;;;;;;5028027;28;20025;-81
2022/12/02 12:19:14;;;;;;;19.23;7.28;;;;;;;;;;5027673;28;20535;-82
2022/12/02 12:21:54;;;;;;;27.92;9.38;;;;;;;;;;5028454;28;20030;-82
2022/12/02 12:24:20;;;;;;;28.38;9.23;;;;;;;;;;5022898;28;20119;-80
2022/12/02 12:26:48;;;;;;;28.88;9.27;;;;;;;;;;5015536;28;20049;-81
2022/12/02 12:29:15;;;;;;;26.92;8.77;;;;;;;;;;5020425;28;20073;-82
2022/12/02 12:31:40;;;;;;;24.52;8.88;;;;;;;;;;5024226;28;20556;-82
2022/12/02 12:34:06;;;;;;;31.63;9.60;;;;;;;;;;5025968;28;20017;-81
2022/12/02 12:36:32;;;;;;;25.33;9.20;;;;;;;;;;5027309;28;20037;-81
2022/12/02 12:38:57;;;;;;;25.65;8.38;;;;;;;;;;5018874;28;20038;-81
2022/12/02 12:41:23;;;;;;;30.55;8.68;;;;;;;;;;5018374;28;20431;-81
2022/12/02 12:43:49;;;;;;;23.00;8.10;;;;;;;;;;5013371;28;20880;-81
2022/12/02 12:46:15;;;;;;;27.55;9.15;;;;;;;;;;5024716;28;20487;-81
2022/12/02 12:48:40;;;;;;;29.45;8.68;;;;;;;;;;5013501;28;20717;-81
2022/12/02 12:51:05;;;;;;;28.77;8.73;;;;;;;;;;5024596;28;20136;-81
2022/12/02 12:53:31;;;;;;;29.60;9.73;;;;;;;;;;5025467;28;20040;-81
2022/12/02 12:55:56;;;;;;;28.60;9.73;;;;;;;;;;5025814;28;20040;-81
2022/12/02 12:58:22;;;;;;;30.70;11.23;;;;;;;;;;5025107;28;20049;-81
2022/12/02 13:00:47;;;;;;;25.38;8.68;;;;;;;;;;5010918;28;20021;-81
2022/12/02 13:03:13;;;;;;;21.20;7.43;;;;;;;;;;5013491;28;20060;-82
2022/12/02 13:05:38;;;;;;;21.60;7.53;;;;;;;;;;5015216;28;20030;-80
2022/12/02 13:08:04;;;;;;;24.58;8.27;;;;;;;;;;5011264;28;20045;-80
2022/12/02 13:10:29;;;;;;;21.98;7.57;;;;;;;;;;5025803;28;20017;-81
2022/12/02 13:12:54;;;;;;;23.73;7.72;;;;;;;;;;5022279;28;20398;-81
2022/12/02 13:15:20;;;;;;;29.52;8.65;;;;;;;;;;5020552;28;20026;-81
2022/12/02 13:17:45;;;;;;;27.38;8.23;;;;;;;;;;5014996;28;20437;-81
2022/12/02 13:20:13;;;;;;;19.05;7.05;;;;;;;;;;5021390;28;20030;-82
2022/12/02 13:22:38;;;;;;;27.65;8.57;;;;;;;;;;5022496;28;20026;-81
2022/12/02 13:25:04;;;;;;;29.38;9.35;;;;;;;;;;5012236;28;20033;-81
2022/12/02 13:27:29;;;;;;;22.15;8.35;;;;;;;;;;5025928;28;20036;-81
2022/12/02 13:29:54;;;;;;;16.00;7.10;;;;;;;;;;5026210;28;20025;-81
2022/12/02 13:32:20;;;;;;;28.92;9.73;;;;;;;;;;5004387;28;20053;-80
2022/12/02 13:34:45;;;;;;;17.23;5.80;;;;;;;;;;5013337;28;20414;-78
2022/12/02 13:37:10;;;;;;;17.70;6.88;;;;;;;;;;5014705;28;20061;-78
2022/12/02 13:39:36;;;;;;;18.75;7.50;;;;;;;;;;5021377;28;20033;-77
2022/12/02 13:42:01;;;;;;;21.95;7.35;;;;;;;;;;5023344;28;20048;-81
2022/12/02 13:44:26;;;;;;;21.13;7.50;;;;;;;;;;5017460;28;20032;-82
2022/12/02 13:46:52;;;;;;;20.08;7.30;;;;;;;;;;5015896;28;20038;-84
2022/12/02 13:49:17;;;;;;;16.60;5.78;;;;;;;;;;5018412;28;20064;-76
2022/12/02 13:51:42;;;;;;;18.67;6.63;;;;;;;;;;5026111;28;20558;-83
2022/12/02 13:54:08;;;;;;;29.17;9.43;;;;;;;;;;5024907;28;20048;-82
2022/12/02 13:56:33;;;;;;;25.58;8.65;;;;;;;;;;5025602;28;20025;-83
2022/12/02 13:58:58;;;;;;;20.00;7.85;;;;;;;;;;5026991;28;20438;-82
2022/12/02 14:01:24;;;;;;;23.20;7.93;;;;;;;;;;5027001;28;20023;-83
2022/12/02 14:03:49;;;;;;;19.73;7.10;;;;;;;;;;5025428;28;20026;-83
2022/12/02 14:06:15;;;;;;;21.50;8.02;;;;;;;;;;5022182;28;20056;-83
2022/12/02 14:08:40;;;;;;;27.77;8.18;;;;;;;;;;5026933;28;20053;-83
2022/12/02 14:11:05;;;;;;;23.42;7.93;;;;;;;;;;5026900;28;20066;-83
2022/12/02 14:13:33;;;;;;;22.77;8.07;;;;;;;;;;5023282;28;20029;-82
2022/12/02 14:15:58;;;;;;;24.17;8.25;;;;;;;;;;5023192;28;20096;-83
2022/12/02 14:18:24;;;;;;;25.70;8.18;;;;;;;;;;5025285;28;20534;-83
2022/12/02 14:20:49;;;;;;;26.67;8.15;;;;;;;;;;5025514;28;20026;-83
2022/12/02 14:23:15;;;;;;;19.60;7.25;;;;;;;;;;5025113;28;20460;-82
2022/12/02 14:25:40;;;;;;;20.08;6.55;;;;;;;;;;5027338;28;20040;-83